createdAt,value
2018-04-27T00:00:51.325Z,52.77
2018-04-27T00:03:19.657Z,35.63
2018-04-27T00:05:47.238Z,36.43
2018-04-27T00:08:14.804Z,53.93
2018-04-27T00:10:42.402Z,24.00
2018-04-27T00:13:10.027Z,34.10
2018-04-27T00:15:37.585Z,38.87
2018-04-27T00:18:06.016Z,39.67
2018-04-27T00:20:33.620Z,30.03
2018-04-27T00:23:01.238Z,35.63
2018-04-27T00:25:28.845Z,33.23
2018-04-27T00:27:56.498Z,39.10
2018-04-27T00:30:24.060Z,41.50
2018-04-27T00:32:51.647Z,34.60
2018-04-27T00:35:19.219Z,31.03
2018-04-27T00:37:47.553Z,30.33
2018-04-27T00:40:15.151Z,34.60
2018-04-27T00:42:43.485Z,27.93
2018-04-27T00:45:11.079Z,29.87
2018-04-27T00:47:38.667Z,30.93
2018-04-27T00:50:07.787Z,33.17
2018-04-27T00:52:47.097Z,29.83
2018-04-27T00:55:14.689Z,30.33
2018-04-27T00:57:42.295Z,30.53
2018-04-27T01:00:09.905Z,33.60
2018-04-27T01:02:37.495Z,38.43
2018-04-27T01:05:05.137Z,43.30
2018-04-27T01:07:32.742Z,43.67
2018-04-27T01:10:00.332Z,33.70
2018-04-27T01:12:28.696Z,52.03
2018-04-27T01:14:57.055Z,40.33
2018-04-27T01:17:24.757Z,31.90
2018-04-27T01:19:53.113Z,28.53
2018-04-27T01:22:20.703Z,27.40
2018-04-27T01:24:49.044Z,30.83
2018-04-27T01:27:16.620Z,27.77
2018-04-27T01:29:44.976Z,38.70
2018-04-27T01:32:12.617Z,25.90
2018-04-27T01:34:40.185Z,38.93
2018-04-27T01:37:07.945Z,29.90
2018-04-27T01:39:35.961Z,31.13
2018-04-27T01:42:04.308Z,36.60
2018-04-27T01:44:31.890Z,29.53
2018-04-27T01:46:59.557Z,37.40
2018-04-27T01:49:27.905Z,33.73
2018-04-27T01:51:56.348Z,23.73
2018-04-27T01:54:23.920Z,30.53
2018-04-27T01:56:51.524Z,29.50
2018-04-27T01:59:19.107Z,30.50
2018-04-27T02:01:46.684Z,25.57
2018-04-27T02:04:14.300Z,31.23
2018-04-27T02:06:41.931Z,36.30
2018-04-27T02:09:10.357Z,32.10
2018-04-27T02:11:37.939Z,32.93
2018-04-27T02:14:06.353Z,30.70
2018-04-27T02:16:33.920Z,34.10
2018-04-27T02:19:01.519Z,34.80
2018-04-27T02:21:29.079Z,34.40
2018-04-27T02:23:56.704Z,32.80
2018-04-27T02:26:24.303Z,37.33
2018-04-27T02:28:51.981Z,34.97
2018-04-27T02:31:20.317Z,31.57
2018-04-27T02:33:47.897Z,32.93
2018-04-27T02:36:15.484Z,35.67
2018-04-27T02:38:43.948Z,39.87
2018-04-27T02:41:11.529Z,31.43
2018-04-27T02:43:39.880Z,36.60
2018-04-27T02:46:07.408Z,30.03
2018-04-27T02:48:35.736Z,29.73
2018-04-27T02:51:03.459Z,33.57
2018-04-27T02:53:31.072Z,32.27
2018-04-27T02:55:58.648Z,29.20
2018-04-27T02:58:26.972Z,28.63
2018-04-27T03:00:54.576Z,40.13
2018-04-27T03:03:22.923Z,38.80
2018-04-27T03:05:50.497Z,32.43
2018-04-27T03:08:18.087Z,44.60
2018-04-27T03:10:46.472Z,22.90
2018-04-27T03:13:14.076Z,34.00
2018-04-27T03:15:41.683Z,27.97
2018-04-27T03:18:10.553Z,55.33
2018-04-27T03:20:38.137Z,31.13
2018-04-27T03:23:06.516Z,26.20
2018-04-27T03:25:34.545Z,30.97
2018-04-27T03:28:02.168Z,37.47
2018-04-27T03:30:29.750Z,46.57
2018-04-27T03:32:57.320Z,45.93
2018-04-27T03:35:24.993Z,31.73
2018-04-27T03:37:52.606Z,24.83
2018-04-27T03:40:20.976Z,30.00
2018-04-27T03:42:49.315Z,23.90
2018-04-27T03:45:16.979Z,33.97
2018-04-27T03:47:44.469Z,31.60
2018-04-27T03:50:12.997Z,34.17
2018-04-27T03:52:40.608Z,32.80
2018-04-27T03:55:08.227Z,26.80
2018-04-27T03:57:35.815Z,25.47
2018-04-27T04:00:15.141Z,24.87
2018-04-27T04:02:54.628Z,24.57
2018-04-27T04:05:26.884Z,29.77
2018-04-27T04:07:55.230Z,30.47
2018-04-27T04:10:22.812Z,33.00
2018-04-27T04:12:50.413Z,29.67
2018-04-27T04:15:17.996Z,32.00
2018-04-27T04:17:45.575Z,25.63
2018-04-27T04:20:13.908Z,37.70
2018-04-27T04:22:41.508Z,27.53
2018-04-27T04:25:09.092Z,23.17
2018-04-27T04:27:36.682Z,28.00
2018-04-27T04:30:04.253Z,24.53
2018-04-27T04:32:31.811Z,40.80
2018-04-27T04:34:59.458Z,30.03
2018-04-27T04:37:27.055Z,34.97
2018-04-27T04:39:54.712Z,29.30
2018-04-27T04:42:22.346Z,33.27
2018-04-27T04:44:50.700Z,27.17
2018-04-27T04:47:18.292Z,33.63
2018-04-27T04:49:46.653Z,31.33
2018-04-27T04:52:14.304Z,27.80
2018-04-27T04:54:41.968Z,26.67
2018-04-27T04:57:09.521Z,27.67
2018-04-27T04:59:38.020Z,43.43
2018-04-27T05:02:05.600Z,33.60
2018-04-27T05:04:33.990Z,29.77
2018-04-27T05:07:01.573Z,32.97
2018-04-27T05:09:29.139Z,28.27
2018-04-27T05:11:56.689Z,26.70
2018-04-27T05:14:24.285Z,31.30
2018-04-27T05:16:51.864Z,25.87
2018-04-27T05:19:19.466Z,29.80
2018-04-27T05:21:47.070Z,29.27
2018-04-27T05:24:15.523Z,27.07
2018-04-27T05:26:43.064Z,28.13
2018-04-27T05:29:10.655Z,26.37
2018-04-27T05:31:38.260Z,30.80
2018-04-27T05:34:06.636Z,24.87
2018-04-27T05:36:34.947Z,26.47
2018-04-27T05:39:02.536Z,24.87
2018-04-27T05:41:30.227Z,27.70
2018-04-27T05:43:57.790Z,43.87
2018-04-27T05:46:25.346Z,29.13
2018-04-27T05:48:52.913Z,29.33
2018-04-27T05:51:21.252Z,30.80
2018-04-27T05:53:49.619Z,25.37
2018-04-27T05:56:17.176Z,30.13
2018-04-27T05:58:44.803Z,23.63
2018-04-27T06:01:13.145Z,25.00
2018-04-27T06:03:53.378Z,23.30
2018-04-27T06:06:21.008Z,27.67
2018-04-27T06:08:49.344Z,22.73
2018-04-27T06:11:16.923Z,24.67
2018-04-27T06:13:44.489Z,19.93
2018-04-27T06:16:12.117Z,27.13
2018-04-27T06:18:40.407Z,22.97
2018-04-27T06:21:07.979Z,22.33
2018-04-27T06:23:35.570Z,18.20
2018-04-27T06:26:03.937Z,24.33
2018-04-27T06:28:34.316Z,25.77
2018-04-27T06:31:01.947Z,27.83
2018-04-27T06:33:29.549Z,31.20
2018-04-27T06:35:57.153Z,29.10
2018-04-27T06:38:24.733Z,28.20
2018-04-27T06:40:52.328Z,31.67
2018-04-27T06:43:19.948Z,24.13
2018-04-27T06:45:47.491Z,21.40
2018-04-27T06:48:16.837Z,35.03
2018-04-27T06:50:45.165Z,23.77
2018-04-27T06:53:12.787Z,19.77
2018-04-27T06:55:40.395Z,23.77
2018-04-27T06:58:08.004Z,24.10
2018-04-27T07:00:35.678Z,26.97
2018-04-27T07:03:03.273Z,23.80
2018-04-27T07:05:30.812Z,28.70
2018-04-27T07:07:58.412Z,26.30
2018-04-27T07:10:26.749Z,22.53
2018-04-27T07:12:54.377Z,25.00
2018-04-27T07:15:21.941Z,26.13
2018-04-27T07:17:49.572Z,24.57
2018-04-27T07:20:19.115Z,22.40
2018-04-27T07:22:46.707Z,28.23
2018-04-27T07:25:14.276Z,18.53
2018-04-27T07:27:41.864Z,22.27
2018-04-27T07:30:10.321Z,22.37
2018-04-27T07:32:37.905Z,40.47
2018-04-27T07:35:06.273Z,19.37
2018-04-27T07:37:33.855Z,21.03
2018-04-27T07:40:02.204Z,19.53
2018-04-27T07:42:29.789Z,18.17
2018-04-27T07:44:58.144Z,20.10
2018-04-27T07:47:25.705Z,24.07
2018-04-27T07:49:53.277Z,19.50
2018-04-27T07:52:20.851Z,18.47
2018-04-27T07:54:49.167Z,21.20
2018-04-27T07:57:16.759Z,18.40
2018-04-27T07:59:45.151Z,24.60
2018-04-27T08:02:13.490Z,16.57
2018-04-27T08:04:41.053Z,25.33
2018-04-27T08:07:09.463Z,30.60
2018-04-27T08:09:36.994Z,48.33
2018-04-27T08:12:05.327Z,18.97
2018-04-27T08:14:33.644Z,18.30
2018-04-27T08:17:01.230Z,18.33
2018-04-27T08:19:28.780Z,20.20
2018-04-27T08:21:56.421Z,18.47
2018-04-27T08:24:23.969Z,22.03
2018-04-27T08:26:52.339Z,15.23
2018-04-27T08:29:20.679Z,18.90
2018-04-27T08:31:48.244Z,23.53
2018-04-27T08:34:15.806Z,27.43
2018-04-27T08:36:44.177Z,22.27
2018-04-27T08:39:11.796Z,23.40
2018-04-27T08:41:40.091Z,27.90
2018-04-27T08:44:07.659Z,21.73
2018-04-27T08:46:35.238Z,18.50
2018-04-27T08:49:02.841Z,24.97
2018-04-27T08:51:32.592Z,20.47
2018-04-27T08:54:00.121Z,18.27
2018-04-27T08:56:28.451Z,22.23
2018-04-27T08:58:56.247Z,17.50
2018-04-27T09:01:23.812Z,19.63
2018-04-27T09:03:51.436Z,15.53
2018-04-27T09:06:19.983Z,22.70
2018-04-27T09:08:47.567Z,20.70
2018-04-27T09:11:15.131Z,16.63
2018-04-27T09:13:42.737Z,18.03
2018-04-27T09:16:10.346Z,15.37
2018-04-27T09:18:37.968Z,17.23
2018-04-27T09:21:05.505Z,19.80
2018-04-27T09:23:33.091Z,15.63
2018-04-27T09:26:01.457Z,24.43
2018-04-27T09:28:29.038Z,23.83
2018-04-27T09:30:57.444Z,20.60
2018-04-27T09:33:25.045Z,24.33
2018-04-27T09:35:52.632Z,22.17
2018-04-27T09:38:21.224Z,19.23
2018-04-27T09:40:48.804Z,20.37
2018-04-27T09:43:16.413Z,16.00
2018-04-27T09:45:44.033Z,25.53
2018-04-27T09:48:11.636Z,21.10
2018-04-27T09:50:39.279Z,24.27
2018-04-27T09:53:07.564Z,16.67
2018-04-27T09:55:35.160Z,20.03
2018-04-27T09:58:03.528Z,19.50
2018-04-27T10:00:31.114Z,22.13
2018-04-27T10:02:59.475Z,20.47
2018-04-27T10:05:27.928Z,16.10
2018-04-27T10:20:56.336Z,28.53
2018-04-27T10:23:24.699Z,24.20
2018-04-27T10:25:52.275Z,22.77
2018-04-27T10:28:20.632Z,13.70
2018-04-27T10:30:48.200Z,25.10
2018-04-27T10:33:15.782Z,16.23
2018-04-27T10:35:44.121Z,17.97
2018-04-27T10:38:11.724Z,19.73
2018-04-27T10:40:40.076Z,19.47
2018-04-27T10:43:07.790Z,16.73
2018-04-27T10:45:36.119Z,21.37
2018-04-27T10:48:03.727Z,20.80
2018-04-27T10:50:31.313Z,20.70
2018-04-27T10:52:58.892Z,15.73
2018-04-27T10:55:26.466Z,17.10
2018-04-27T10:57:54.047Z,17.47
2018-04-27T11:00:22.623Z,16.40
2018-04-27T11:02:50.159Z,17.73
2018-04-27T11:05:17.772Z,19.03
2018-04-27T11:07:45.415Z,18.17
2018-04-27T11:10:13.788Z,17.43
2018-04-27T11:12:41.352Z,16.40
2018-04-27T11:15:09.693Z,15.47
2018-04-27T11:17:37.254Z,23.73
2018-04-27T11:20:04.856Z,18.63
2018-04-27T11:22:33.196Z,18.67
2018-04-27T11:25:00.771Z,18.23
2018-04-27T11:27:28.535Z,14.73
2018-04-27T11:29:56.124Z,15.73
2018-04-27T11:32:24.548Z,13.47
2018-04-27T11:34:52.161Z,13.90
2018-04-27T11:37:19.739Z,16.23
2018-04-27T11:39:47.337Z,21.70
2018-04-27T11:42:15.028Z,16.40
2018-04-27T11:44:42.642Z,19.50
2018-04-27T11:47:10.239Z,20.77
2018-04-27T11:49:37.841Z,29.70
2018-04-27T11:52:06.207Z,19.57
2018-04-27T11:54:33.857Z,15.80
2018-04-27T11:57:01.512Z,16.20
2018-04-27T11:59:29.095Z,21.53
2018-04-27T12:01:57.498Z,13.53
2018-04-27T12:04:25.914Z,13.17
2018-04-27T12:06:53.557Z,14.43
2018-04-27T12:09:21.116Z,22.53
2018-04-27T12:11:48.729Z,14.57
2018-04-27T12:14:16.313Z,16.87
2018-04-27T12:16:44.648Z,17.13
2018-04-27T12:19:12.233Z,16.27
2018-04-27T12:21:39.839Z,21.13
2018-04-27T12:24:08.225Z,14.73
2018-04-27T12:26:35.825Z,20.03
2018-04-27T12:29:03.417Z,19.20
2018-04-27T12:31:31.857Z,16.87
2018-04-27T12:33:59.358Z,18.10
2018-04-27T12:36:27.742Z,17.97
2018-04-27T12:38:55.463Z,24.73
2018-04-27T12:41:23.042Z,16.73
2018-04-27T12:43:50.626Z,17.40
2018-04-27T12:46:18.972Z,15.70
2018-04-27T12:48:46.599Z,16.13
2018-04-27T12:51:14.160Z,17.13
2018-04-27T12:53:41.793Z,20.47
2018-04-27T12:56:09.367Z,14.90
2018-04-27T12:58:36.930Z,21.33
2018-04-27T13:01:04.544Z,18.60
2018-04-27T13:03:32.132Z,21.53
2018-04-27T13:06:00.502Z,13.77
2018-04-27T13:08:28.830Z,22.03
2018-04-27T13:10:56.464Z,20.10
2018-04-27T13:13:24.830Z,18.30
2018-04-27T13:15:53.210Z,16.80
2018-04-27T13:18:20.837Z,17.30
2018-04-27T13:20:48.440Z,25.60
2018-04-27T13:23:16.859Z,17.67
2018-04-27T13:25:44.518Z,21.57
2018-04-27T13:28:12.108Z,21.43
2018-04-27T13:30:39.702Z,18.90
2018-04-27T13:33:08.074Z,21.20
2018-04-27T13:35:36.429Z,21.00
2018-04-27T13:38:04.012Z,15.07
2018-04-27T13:40:32.405Z,14.93
2018-04-27T13:52:45.915Z,15.30
2018-04-27T13:55:13.507Z,16.00
2018-04-27T13:57:41.083Z,21.80
2018-04-27T14:00:08.679Z,16.90
2018-04-27T14:02:36.289Z,16.50
2018-04-27T14:05:04.572Z,16.40
2018-04-27T14:07:32.230Z,18.60
2018-04-27T14:09:59.815Z,16.00
2018-04-27T14:12:27.392Z,18.17
2018-04-27T14:14:54.952Z,17.77
2018-04-27T14:17:22.555Z,14.43
2018-04-27T14:19:50.145Z,14.27
2018-04-27T14:22:17.686Z,17.27
2018-04-27T14:24:45.292Z,17.60
2018-04-27T14:27:12.847Z,19.60
2018-04-27T14:29:40.480Z,25.03
2018-04-27T14:32:08.048Z,17.27
2018-04-27T14:34:35.693Z,16.13
2018-04-27T14:37:03.276Z,15.63
2018-04-27T14:39:30.865Z,20.47
2018-04-27T14:41:58.432Z,14.30
2018-04-27T14:44:26.070Z,23.17
2018-04-27T14:46:53.665Z,19.70
2018-04-27T14:49:22.040Z,16.90
2018-04-27T14:51:50.416Z,18.70
2018-04-27T14:54:17.991Z,15.70
2018-04-27T14:56:46.336Z,16.87
2018-04-27T14:59:13.911Z,17.00
2018-04-27T15:01:41.476Z,17.87
2018-04-27T15:04:09.816Z,19.67
2018-04-27T15:06:37.383Z,23.07
2018-04-27T15:09:04.974Z,17.93
2018-04-27T15:11:33.302Z,16.73
2018-04-27T15:14:00.911Z,15.20
2018-04-27T15:16:28.486Z,18.37
2018-04-27T15:18:56.073Z,13.93
2018-04-27T15:21:23.675Z,15.90
2018-04-27T15:23:51.253Z,16.03
2018-04-27T15:26:18.856Z,16.90
2018-04-27T15:28:46.412Z,18.43
2018-04-27T15:31:14.586Z,13.83
2018-04-27T15:33:43.904Z,18.13
2018-04-27T15:36:11.475Z,17.83
2018-04-27T15:38:39.036Z,18.33
2018-04-27T15:41:06.615Z,21.87
2018-04-27T15:43:34.197Z,15.50
2018-04-27T15:46:01.789Z,16.30
2018-04-27T15:48:30.121Z,20.93
2018-04-27T15:50:57.686Z,19.33
2018-04-27T15:53:25.293Z,18.40
2018-04-27T15:55:52.913Z,19.07
2018-04-27T15:58:20.967Z,23.07
2018-04-27T16:00:48.573Z,21.27
2018-04-27T16:03:16.167Z,22.60
2018-04-27T16:05:43.755Z,21.60
2018-04-27T16:08:11.325Z,25.57
2018-04-27T16:10:38.951Z,16.53
2018-04-27T16:13:30.090Z,18.23
2018-04-27T16:15:57.655Z,19.30
2018-04-27T16:18:25.229Z,18.30
2018-04-27T16:20:52.777Z,23.90
2018-04-27T16:23:20.344Z,16.50
2018-04-27T16:25:47.983Z,17.13
2018-04-27T16:28:15.578Z,21.90
2018-04-27T16:30:43.161Z,18.53
2018-04-27T16:33:11.512Z,17.03
2018-04-27T16:35:39.120Z,15.83
2018-04-27T16:38:07.461Z,27.53
2018-04-27T16:40:35.011Z,18.07
2018-04-27T16:43:02.699Z,25.70
2018-04-27T16:45:30.288Z,19.67
2018-04-27T16:47:57.917Z,33.77
2018-04-27T16:50:26.303Z,18.17
2018-04-27T16:52:54.649Z,15.93
2018-04-27T16:55:22.375Z,17.10
2018-04-27T16:57:49.917Z,18.93
2018-04-27T17:00:18.238Z,16.40
2018-04-27T17:02:45.848Z,18.50
2018-04-27T17:05:14.294Z,18.33
2018-04-27T17:07:41.860Z,18.70
2018-04-27T17:10:09.477Z,16.00
2018-04-27T17:12:37.044Z,19.10
2018-04-27T17:15:04.637Z,15.10
2018-04-27T17:17:32.197Z,15.50
2018-04-27T17:20:00.734Z,15.10
2018-04-27T17:22:28.401Z,16.47
2018-04-27T17:24:55.958Z,23.53
2018-04-27T17:27:23.566Z,29.20
2018-04-27T17:29:51.135Z,21.70
2018-04-27T17:32:18.749Z,21.73
2018-04-27T17:34:46.414Z,19.60
2018-04-27T17:37:15.360Z,19.70
2018-04-27T17:39:42.989Z,21.33
2018-04-27T17:42:10.553Z,16.80
2018-04-27T17:44:38.231Z,17.00
2018-04-27T17:47:06.985Z,20.53
2018-04-27T17:49:35.394Z,26.57
2018-04-27T17:52:03.000Z,19.40
2018-04-27T17:54:30.756Z,25.60
2018-04-27T17:56:58.403Z,24.97
2018-04-27T18:02:16.903Z,19.90
2018-04-27T18:04:45.418Z,20.13
2018-04-27T18:07:13.053Z,19.10
2018-04-27T18:09:42.294Z,31.73
2018-04-27T18:12:10.569Z,30.13
2018-04-27T18:14:39.625Z,19.57
2018-04-27T18:17:08.710Z,21.83
2018-04-27T18:19:38.042Z,30.33
2018-04-27T18:22:06.434Z,20.20
2018-04-27T18:24:34.050Z,19.87
2018-04-27T18:27:01.599Z,18.70
2018-04-27T18:29:29.195Z,21.10
2018-04-27T18:31:57.764Z,37.10
2018-04-27T18:34:26.148Z,20.50
2018-04-27T18:36:54.526Z,21.07
2018-04-27T18:39:22.924Z,21.43
2018-04-27T18:41:50.574Z,20.80
2018-04-27T18:44:18.907Z,19.93
2018-04-27T18:46:46.672Z,26.67
2018-04-27T18:49:14.314Z,21.50
2018-04-27T18:51:42.701Z,25.23
2018-04-27T18:54:10.297Z,23.80
2018-04-27T18:56:38.787Z,20.07
2018-04-27T18:59:07.913Z,26.17
2018-04-27T19:01:35.597Z,27.10
2018-04-27T19:04:03.146Z,20.33
2018-04-27T19:06:30.753Z,25.27
2018-04-27T19:08:58.455Z,23.47
2018-04-27T19:11:26.105Z,22.50
2018-04-27T19:13:54.424Z,21.50
2018-04-27T19:16:22.031Z,20.17
2018-04-27T19:18:49.667Z,30.27
2018-04-27T19:21:19.108Z,27.67
2018-04-27T19:23:47.463Z,24.30
2018-04-27T19:26:15.947Z,20.17
2018-04-27T19:28:43.501Z,23.10
2018-04-27T19:31:11.181Z,21.20
2018-04-27T19:33:38.750Z,18.33
2018-04-27T19:36:07.097Z,22.87
2018-04-27T19:38:34.692Z,24.07
2018-04-27T19:41:03.096Z,21.60
2018-04-27T19:43:30.691Z,24.50
2018-04-27T19:45:58.341Z,21.80
2018-04-27T19:48:25.949Z,26.93
2018-04-27T19:50:54.434Z,24.33
2018-04-27T19:53:22.850Z,21.33
2018-04-27T19:55:51.222Z,23.07
2018-04-27T19:58:18.893Z,28.93
2018-04-27T20:00:46.463Z,19.30
2018-04-27T20:03:14.044Z,25.43
2018-04-27T20:05:44.343Z,24.20
2018-04-27T20:08:11.997Z,28.10
2018-04-27T20:10:39.707Z,26.03
2018-04-27T20:13:07.205Z,26.40
2018-04-27T20:15:36.965Z,27.30
2018-04-27T20:18:23.234Z,24.83
2018-04-27T20:20:50.744Z,25.03
2018-04-27T20:23:19.483Z,21.30
2018-04-27T20:25:47.230Z,23.10
2018-04-27T20:28:16.466Z,31.60
2018-04-27T20:30:44.057Z,25.40
2018-04-27T20:33:11.654Z,29.87
2018-04-27T20:35:40.005Z,37.10
2018-04-27T20:38:13.299Z,28.77
2018-04-27T20:40:40.904Z,33.80
2018-04-27T20:43:09.426Z,27.77
2018-04-27T20:45:37.085Z,33.50
2018-04-27T20:48:06.136Z,24.53
2018-04-27T20:50:33.723Z,28.67
2018-04-27T20:53:01.345Z,32.17
2018-04-27T20:55:29.060Z,32.20
2018-04-27T20:57:56.660Z,28.13
2018-04-27T21:00:24.289Z,28.40
2018-04-27T21:02:51.860Z,25.93
2018-04-27T21:05:20.264Z,24.50
2018-04-27T21:07:48.607Z,22.63
2018-04-27T21:10:18.855Z,27.37
2018-04-27T21:12:47.404Z,31.93
2018-04-27T21:15:15.000Z,22.43
2018-04-27T21:17:42.573Z,21.53
2018-04-27T21:20:10.954Z,26.87
2018-04-27T21:22:40.048Z,21.30
2018-04-27T21:25:07.596Z,20.23
2018-04-27T21:27:36.764Z,23.00
2018-04-27T21:30:04.490Z,30.30
2018-04-27T21:32:32.769Z,30.60
2018-04-27T21:35:01.179Z,32.43
2018-04-27T21:37:28.825Z,32.90
2018-04-27T21:39:56.405Z,37.57
2018-04-27T21:42:25.680Z,23.50
2018-04-27T21:44:56.827Z,30.90
2018-04-27T21:47:29.058Z,31.90
2018-04-27T21:49:57.380Z,25.90
2018-04-27T21:52:30.796Z,22.63
2018-04-27T21:54:58.426Z,26.50
2018-04-27T21:57:29.668Z,29.07
2018-04-27T21:59:58.852Z,25.70
2018-04-27T22:02:34.085Z,23.73
2018-04-27T22:05:13.521Z,27.50
2018-04-27T22:07:41.837Z,22.07
2018-04-27T22:10:09.438Z,23.70
2018-04-27T22:12:43.748Z,26.93
2018-04-27T22:15:11.344Z,29.37
2018-04-27T22:17:39.753Z,22.40
2018-04-27T22:20:12.633Z,21.47
2018-04-27T22:22:41.776Z,27.93
2018-04-27T22:25:09.355Z,28.60
2018-04-27T22:27:36.975Z,26.10
2018-04-27T22:30:08.443Z,29.07
2018-04-27T22:32:36.759Z,25.80
2018-04-27T22:35:20.040Z,23.60
2018-04-27T22:37:47.524Z,27.57
2018-04-27T22:43:18.696Z,25.63
2018-04-27T22:45:46.912Z,19.30
2018-04-27T22:51:38.311Z,23.43
2018-04-27T22:54:08.235Z,19.73
2018-04-27T22:56:51.564Z,25.60
2018-04-27T22:59:28.157Z,22.00
2018-04-27T23:01:57.256Z,26.27
2018-04-27T23:04:25.640Z,26.93
2018-04-27T23:06:53.184Z,25.20
2018-04-27T23:09:20.731Z,32.70
2018-04-27T23:11:48.319Z,27.97
2018-04-27T23:14:34.541Z,23.57
2018-04-27T23:17:02.948Z,29.27
2018-04-27T23:19:39.468Z,27.03
2018-04-27T23:22:43.219Z,19.70
2018-04-27T23:25:20.585Z,22.97
2018-04-27T23:27:48.173Z,32.77
2018-04-27T23:30:21.532Z,24.70
2018-04-27T23:32:49.857Z,19.07
2018-04-27T23:35:18.168Z,26.70
2018-04-27T23:37:45.753Z,21.67
2018-04-27T23:40:14.133Z,27.20
2018-04-27T23:42:42.566Z,22.90
2018-04-27T23:45:10.732Z,22.40
2018-04-27T23:47:38.410Z,25.97
2018-04-27T23:50:06.037Z,19.50
2018-04-27T23:52:33.653Z,29.20
2018-04-27T23:55:01.265Z,25.30
2018-04-27T23:57:29.750Z,21.40
2018-04-27T23:59:57.315Z,20.33
